Time;durP1;ratioP1;P1;durP2;ratioP2;P2;SDS_P1;SDS_P2;PMS_P1;PMS_P2;Temp;Humidity;BMP_temperature;BMP_pressure;BME280_temperature;BME280_humidity;BME280_pressure;Samples;Min_cycle;Max_cycle;Signal;HPM_P1;HPM_P2
2022/09/01 00:00:13;;;;;;;0.30;0.30;;;;;;;20.46;70.85;99261.53;4469784;32;33581;-77
2022/09/01 00:02:42;;;;;;;1.87;0.98;;;;;;;20.44;70.96;99260.78;4443691;32;32609;-76
2022/09/01 00:05:11;;;;;;;0.20;0.20;;;;;;;19.69;75.93;99265.41;4466719;32;35014;-77
2022/09/01 00:07:39;;;;;;;0.57;0.57;;;;;;;20.20;72.81;99263.75;4470241;32;35151;-76
2022/09/01 00:10:08;;;;;;;0.70;0.70;;;;;;;20.32;71.03;99274.63;4469727;32;34412;-76
2022/09/01 00:12:37;;;;;;;0.28;0.28;;;;;;;20.22;71.53;99277.75;4456642;32;35135;-77
2022/09/01 00:15:07;;;;;;;0.57;0.50;;;;;;;20.16;69.58;99278.06;4465646;32;35569;-76
2022/09/01 00:17:35;;;;;;;2.05;1.85;;;;;;;19.92;70.67;99284.59;4486356;32;33737;-78
2022/09/01 00:20:04;;;;;;;0.40;0.40;;;;;;;19.25;73.61;99281.62;4460972;32;33703;-77
2022/09/01 00:22:32;;;;;;;2.62;0.90;;;;;;;19.50;71.13;99290.09;4469724;32;34833;-78
2022/09/01 00:25:00;;;;;;;0.62;0.62;;;;;;;18.71;76.33;99282.31;4469647;32;35860;-78
2022/09/01 00:27:28;;;;;;;0.35;0.35;;;;;;;18.46;77.73;99282.56;4456543;32;35157;-78
2022/09/01 00:29:58;;;;;;;0.90;0.90;;;;;;;19.26;72.91;99280.72;4469667;32;34281;-78
2022/09/01 00:32:27;;;;;;;0.52;0.52;;;;;;;18.40;78.23;99279.31;4470351;32;34761;-78
2022/09/01 00:34:55;;;;;;;0.37;0.37;;;;;;;18.62;75.69;99288.00;4469605;32;35876;-78
2022/09/01 00:37:23;;;;;;;0.22;0.22;;;;;;;18.69;73.91;99289.44;4469649;32;34995;-78
2022/09/01 00:39:51;;;;;;;0.73;0.62;;;;;;;18.98;72.79;99282.00;4455774;32;33612;-78
2022/09/01 00:42:19;;;;;;;0.60;0.50;;;;;;;19.28;69.88;99277.06;4456024;32;33164;-77
2022/09/01 00:44:47;;;;;;;0.40;0.40;;;;;;;19.13;70.75;99283.09;4450150;32;35165;-76
2022/09/01 00:47:16;;;;;;;0.85;0.70;;;;;;;19.02;70.88;99283.56;4467863;32;35278;-78
2022/09/01 00:49:46;;;;;;;0.40;0.40;;;;;;;18.86;71.77;99287.84;4463948;32;34089;-78
2022/09/01 00:52:37;;;;;;;2.08;1.45;;;;;;;18.88;71.80;99285.97;4456387;32;33781;-78
2022/09/01 00:55:28;;;;;;;0.30;0.30;;;;;;;18.74;73.46;99286.56;4455397;32;34388;-78
2022/09/01 00:57:58;;;;;;;0.30;0.30;;;;;;;19.00;72.59;99284.56;4456549;32;34951;-78
2022/09/01 01:00:29;;;;;;;0.70;0.60;;;;;;;18.30;76.98;99285.00;4454908;32;33640;-78
2022/09/01 01:02:57;;;;;;;0.30;0.30;;;;;;;18.04;78.31;99301.06;4470303;32;34811;-77
2022/09/01 01:05:31;;;;;;;0.35;0.20;;;;;;;18.26;77.49;99290.47;4469691;32;35809;-77
2022/09/01 01:08:01;;;;;;;0.30;0.30;;;;;;;17.32;82.75;99292.50;4456204;32;33590;-77
2022/09/01 01:10:31;;;;;;;0.45;0.45;;;;;;;17.18;83.23;99289.56;4457997;32;33599;-77
2022/09/01 01:13:03;;;;;;;0.40;0.40;;;;;;;17.06;87.51;99282.97;4456290;32;32921;-77
2022/09/01 01:15:31;;;;;;;0.55;0.55;;;;;;;17.25;84.66;99283.97;4468103;32;35037;-78
2022/09/01 01:17:59;;;;;;;0.20;0.20;;;;;;;17.41;85.25;99283.38;4469326;32;35148;-78
2022/09/01 01:23:40;;;;;;;0.20;0.20;;;;;;;18.70;75.91;99285.84;4460378;32;31952;-78
2022/09/01 01:26:09;;;;;;;3.60;1.33;;;;;;;17.65;80.91;99276.28;4449902;32;35109;-77
2022/09/01 01:28:40;;;;;;;0.37;0.37;;;;;;;18.17;78.43;99289.06;4470369;32;33633;-78
2022/09/01 01:31:12;;;;;;;0.20;0.20;;;;;;;18.07;77.18;99283.34;4470145;32;34064;-77
2022/09/01 01:33:46;;;;;;;0.37;0.37;;;;;;;17.88;80.49;99283.25;4470144;32;33356;-77
2022/09/01 01:36:31;;;;;;;0.30;0.30;;;;;;;17.70;83.41;99281.34;4468653;32;34928;-77
2022/09/01 01:39:03;;;;;;;0.30;0.30;;;;;;;18.28;78.44;99283.34;4469940;32;34630;-77
2022/09/01 01:41:32;;;;;;;0.30;0.30;;;;;;;17.73;80.79;99278.59;4469099;32;33489;-77
2022/09/01 01:44:05;;;;;;;0.65;0.50;;;;;;;18.62;76.40;99282.72;4469339;32;34035;-77
2022/09/01 01:46:34;;;;;;;0.45;0.45;;;;;;;18.34;76.59;99270.75;4470056;32;35959;-77
2022/09/01 01:49:03;;;;;;;0.62;0.62;;;;;;;18.55;75.64;99273.38;4463677;32;34600;-77
2022/09/01 01:51:31;;;;;;;0.30;0.30;;;;;;;18.24;77.25;99261.53;4456099;32;34228;-77
2022/09/01 01:54:04;;;;;;;0.20;0.20;;;;;;;18.40;77.31;99269.63;4469349;32;34810;-77
2022/09/01 01:56:36;;;;;;;0.37;0.37;;;;;;;18.14;79.20;99263.72;4469028;32;35373;-77
2022/09/01 01:59:05;;;;;;;0.20;0.20;;;;;;;18.31;77.86;99255.06;4442924;32;34497;-78
2022/09/01 02:01:35;;;;;;;0.35;0.35;;;;;;;18.22;77.93;99252.84;4455476;32;33661;-77
2022/09/01 02:04:04;;;;;;;0.25;0.22;;;;;;;17.83;80.62;99253.59;4468269;32;34573;-77
2022/09/01 02:06:33;;;;;;;0.88;0.88;;;;;;;17.94;79.39;99245.25;4443038;32;35236;-77
2022/09/01 02:09:03;;;;;;;0.30;0.30;;;;;;;18.11;78.42;99249.81;4455191;32;34466;-77
2022/09/01 02:11:32;;;;;;;0.88;0.88;;;;;;;17.93;79.08;99249.69;4468462;32;33512;-77
2022/09/01 02:14:01;;;;;;;0.37;0.37;;;;;;;17.90;80.63;99256.88;4468091;32;34756;-77
2022/09/01 02:16:31;;;;;;;0.20;0.20;;;;;;;17.65;82.71;99247.31;4468612;32;35885;-78
2022/09/01 02:19:01;;;;;;;0.55;0.55;;;;;;;17.67;78.62;99247.25;4455735;32;34349;-77
2022/09/01 02:21:30;;;;;;;0.60;0.60;;;;;;;17.71;79.82;99249.69;4471089;32;34310;-78
2022/09/01 02:24:02;;;;;;;0.80;0.77;;;;;;;17.78;78.77;99255.56;4485002;32;33893;-77
2022/09/01 02:26:38;;;;;;;2.53;1.73;;;;;;;17.20;82.30;99259.63;4471848;32;35703;-78
2022/09/01 02:29:16;;;;;;;0.50;0.50;;;;;;;17.27;81.57;99265.50;4480356;32;35063;-77
2022/09/01 02:31:49;;;;;;;0.30;0.30;;;;;;;17.58;78.62;99254.59;4457461;32;33578;-78
2022/09/01 02:34:17;;;;;;;0.25;0.20;;;;;;;17.30;80.61;99251.38;4470506;32;33992;-78
2022/09/01 02:36:50;;;;;;;1.65;0.52;;;;;;;16.90;81.93;99242.41;4471483;32;35713;-77
2022/09/01 02:39:25;;;;;;;0.25;0.25;;;;;;;17.12;81.54;99243.28;4456568;32;34552;-77
2022/09/01 02:41:54;;;;;;;0.35;0.35;;;;;;;17.04;82.13;99242.72;4470124;32;34323;-77
2022/09/01 02:44:23;;;;;;;0.20;0.20;;;;;;;17.92;76.97;99236.56;4469189;32;34101;-77
2022/09/01 02:46:51;;;;;;;0.57;0.50;;;;;;;17.17;81.51;99246.59;4460935;32;34829;-76
2022/09/01 02:49:27;;;;;;;0.30;0.30;;;;;;;17.23;81.53;99238.44;4471027;32;34442;-77
2022/09/01 02:51:58;;;;;;;0.60;0.60;;;;;;;16.91;83.65;99237.09;4445287;32;33517;-77
2022/09/01 02:54:28;;;;;;;0.20;0.20;;;;;;;17.72;78.99;99227.72;4456952;32;34245;-77
2022/09/01 02:56:56;;;;;;;0.20;0.20;;;;;;;17.71;78.64;99230.41;4471248;32;34942;-77
2022/09/01 02:59:27;;;;;;;0.62;0.62;;;;;;;17.30;80.18;99238.22;4470324;32;34143;-77
2022/09/01 03:01:56;;;;;;;0.52;0.52;;;;;;;17.70;76.71;99226.91;4469781;32;33552;-77
2022/09/01 03:04:25;;;;;;;0.30;0.30;;;;;;;17.05;80.13;99220.78;4456505;32;33791;-77
2022/09/01 03:06:57;;;;;;;2.05;1.25;;;;;;;16.66;82.76;99216.09;4470219;32;35043;-77
2022/09/01 03:09:26;;;;;;;0.20;0.20;;;;;;;17.15;79.44;99218.63;4470252;32;34548;-77
2022/09/01 03:11:54;;;;;;;1.87;1.70;;;;;;;17.04;79.85;99221.69;4471055;32;33435;-77
2022/09/01 03:14:24;;;;;;;0.62;0.62;;;;;;;17.18;80.21;99229.03;4470182;32;33910;-77
2022/09/01 03:16:53;;;;;;;0.20;0.20;;;;;;;17.01;80.58;99234.94;4470314;32;35467;-77
2022/09/01 03:19:21;;;;;;;0.68;0.68;;;;;;;17.23;79.92;99246.34;4456213;32;33601;-77
2022/09/01 03:21:49;;;;;;;0.20;0.20;;;;;;;17.01;78.77;99248.97;4456906;32;34095;-77
2022/09/01 03:24:18;;;;;;;0.20;0.20;;;;;;;17.21;78.62;99258.72;4470101;32;33080;-77
2022/09/01 03:26:47;;;;;;;0.30;0.30;;;;;;;17.40;78.36;99260.59;4470855;32;35766;-77
2022/09/01 03:29:17;;;;;;;0.32;0.32;;;;;;;17.71;75.60;99254.09;4457321;32;34429;-77
2022/09/01 03:31:46;;;;;;;0.20;0.20;;;;;;;17.24;80.31;99255.97;4469050;32;33192;-77
2022/09/01 03:34:15;;;;;;;0.30;0.30;;;;;;;17.96;75.09;99249.53;4456351;32;34817;-77
2022/09/01 03:36:49;;;;;;;0.30;0.30;;;;;;;17.63;76.52;99242.09;4455925;32;34926;-77
2022/09/01 03:39:18;;;;;;;0.20;0.20;;;;;;;17.34;77.29;99234.53;4470173;32;35354;-77
2022/09/01 03:41:46;;;;;;;0.75;0.70;;;;;;;17.34;76.05;99224.00;4456676;32;32531;-77
2022/09/01 03:44:15;;;;;;;0.68;0.68;;;;;;;16.87;78.65;99220.56;4470735;32;33975;-77
2022/09/01 03:46:44;;;;;;;0.57;0.50;;;;;;;16.96;77.98;99221.09;4470296;32;35978;-77
2022/09/01 03:49:14;;;;;;;0.20;0.20;;;;;;;16.70;79.64;99225.56;4470056;32;35295;-77
2022/09/01 03:51:43;;;;;;;0.40;0.40;;;;;;;16.64;81.05;99225.78;4468324;32;32694;-77
2022/09/01 03:54:12;;;;;;;0.20;0.20;;;;;;;16.62;80.58;99219.75;4470752;32;33787;-77
2022/09/01 03:56:41;;;;;;;0.20;0.20;;;;;;;16.49;81.16;99225.44;4468999;32;35921;-77
2022/09/01 03:59:15;;;;;;;0.40;0.40;;;;;;;16.52;82.94;99223.63;4457327;32;34397;-78
2022/09/01 04:01:45;;;;;;;0.20;0.20;;;;;;;16.24;83.95;99216.75;4457162;32;33477;-77
2022/09/01 04:04:14;;;;;;;0.43;0.43;;;;;;;16.44;80.96;99209.00;4456998;32;33986;-77
2022/09/01 04:06:43;;;;;;;0.20;0.20;;;;;;;16.06;84.02;99216.50;4468826;32;35112;-77
2022/09/01 04:09:11;;;;;;;0.40;0.40;;;;;;;16.14;83.79;99220.62;4470889;32;35280;-77
2022/09/01 04:11:42;;;;;;;0.80;0.80;;;;;;;16.19;84.15;99214.28;4455442;32;33430;-77
2022/09/01 04:14:13;;;;;;;0.30;0.30;;;;;;;16.25;84.16;99215.84;4470575;32;34766;-77
2022/09/01 04:19:29;;;;;;;;;;;;;;;16.78;81.62;99210.38;4471196;32;35251;-77
2022/09/01 04:21:59;;;;;;;0.15;0.15;;;;;;;16.56;80.99;99210.31;4456018;32;31336;-78
2022/09/01 04:24:30;;;;;;;0.50;0.50;;;;;;;16.31;84.49;99213.00;4456933;32;35195;-78
2022/09/01 04:27:04;;;;;;;0.73;0.73;;;;;;;16.24;83.75;99214.97;4471699;32;35706;-77
2022/09/01 04:29:34;;;;;;;0.30;0.30;;;;;;;16.79;81.43;99219.97;4472958;32;34564;-78
2022/09/01 04:32:11;;;;;;;0.47;0.47;;;;;;;16.69;81.61;99221.22;4470713;32;34387;-78
2022/09/01 04:34:40;;;;;;;0.62;0.62;;;;;;;15.83;87.23;99230.44;4456428;32;34627;-78
2022/09/01 04:37:16;;;;;;;0.20;0.20;;;;;;;16.56;83.15;99228.72;4469790;32;35148;-78
2022/09/01 04:39:52;;;;;;;0.30;0.30;;;;;;;16.28;85.61;99229.72;4453018;32;34535;-78
2022/09/01 04:42:27;;;;;;;0.40;0.40;;;;;;;16.42;83.86;99233.63;4438802;32;33626;-78
2022/09/01 04:44:58;;;;;;;0.47;0.47;;;;;;;16.40;85.33;99233.69;4440151;32;34102;-77
2022/09/01 04:47:40;;;;;;;0.30;0.30;;;;;;;16.15;85.65;99227.56;4455029;32;35006;-78
2022/09/01 04:50:15;;;;;;;0.52;0.52;;;;;;;16.32;85.18;99227.84;4451458;32;34625;-78
2022/09/01 04:52:54;;;;;;;0.20;0.20;;;;;;;15.89;88.76;99229.34;4438933;32;33573;-77
2022/09/01 04:55:25;;;;;;;0.52;0.52;;;;;;;16.68;83.87;99228.25;4437501;32;32410;-78
2022/09/01 04:57:57;;;;;;;0.37;0.37;;;;;;;15.96;86.55;99233.47;4439566;32;35865;-78
2022/09/01 05:00:30;;;;;;;0.50;0.50;;;;;;;16.85;80.80;99232.03;4438117;32;34414;-78
2022/09/01 05:03:03;;;;;;;0.20;0.20;;;;;;;17.10;79.86;99236.34;4441872;32;33491;-78
2022/09/01 05:05:41;;;;;;;0.43;0.43;;;;;;;16.98;80.34;99243.81;4435841;32;32414;-78
2022/09/01 05:08:16;;;;;;;0.20;0.20;;;;;;;16.97;79.62;99254.41;4425447;32;33582;-78
2022/09/01 05:10:54;;;;;;;0.20;0.20;;;;;;;16.89;78.61;99248.56;4441673;32;33945;-78
2022/09/01 05:13:26;;;;;;;0.30;0.30;;;;;;;16.76;80.39;99251.63;4439429;32;34303;-77
2022/09/01 05:16:11;;;;;;;0.30;0.30;;;;;;;17.23;75.99;99254.25;4437439;32;33050;-78
2022/09/01 05:18:46;;;;;;;0.30;0.30;;;;;;;17.17;76.32;99243.97;4438404;32;35230;-78
2022/09/01 05:21:20;;;;;;;0.60;0.60;;;;;;;16.49;81.37;99240.38;4437584;32;34227;-78
2022/09/01 05:23:50;;;;;;;1.55;0.43;;;;;;;16.75;79.99;99241.19;4439072;32;33253;-77
2022/09/01 05:26:22;;;;;;;0.45;0.45;;;;;;;17.08;78.37;99248.72;4438396;32;33966;-78
2022/09/01 05:28:55;;;;;;;0.30;0.30;;;;;;;16.80;80.33;99242.72;4437901;32;35841;-78
2022/09/01 05:31:26;;;;;;;0.57;0.57;;;;;;;16.20;85.86;99239.66;4447982;32;34384;-77
2022/09/01 05:33:56;;;;;;;0.30;0.30;;;;;;;16.90;81.47;99245.87;4442314;32;34162;-78
2022/09/01 05:36:25;;;;;;;0.37;0.37;;;;;;;17.14;80.19;99246.72;4437932;32;34038;-78
2022/09/01 05:38:54;;;;;;;0.25;0.25;;;;;;;16.38;83.64;99246.03;4447673;32;35244;-78
2022/09/01 05:41:24;;;;;;;0.50;0.50;;;;;;;16.98;80.57;99245.59;4455594;32;34320;-78
2022/09/01 05:43:53;;;;;;;0.73;0.73;;;;;;;17.30;78.61;99239.06;4470033;32;34339;-78
2022/09/01 05:46:28;;;;;;;0.20;0.20;;;;;;;16.56;82.65;99251.53;4469288;32;33833;-78
2022/09/01 05:48:57;;;;;;;0.35;0.35;;;;;;;17.37;78.91;99250.22;4455885;32;35775;-78
2022/09/01 05:51:27;;;;;;;0.30;0.30;;;;;;;16.61;84.32;99246.97;4443312;32;34423;-78
2022/09/01 05:54:17;;;;;;;3.15;0.77;;;;;;;16.51;85.71;99254.31;4469365;32;34310;-78
2022/09/01 05:56:45;;;;;;;0.75;0.75;;;;;;;16.93;83.05;99248.41;4469235;32;33914;-78
2022/09/01 05:59:14;;;;;;;0.30;0.30;;;;;;;16.38;86.49;99253.91;4469214;32;35011;-78
2022/09/01 06:01:52;;;;;;;0.40;0.40;;;;;;;16.76;85.19;99242.88;4469315;32;35268;-78
2022/09/01 06:04:22;;;;;;;0.32;0.32;;;;;;;16.98;81.66;99248.25;4468788;32;33446;-78
2022/09/01 06:06:52;;;;;;;0.40;0.40;;;;;;;17.03;80.10;99241.03;4468743;32;34908;-78
2022/09/01 06:09:42;;;;;;;0.52;0.52;;;;;;;16.45;83.04;99234.38;4457868;32;35982;-78
2022/09/01 06:12:16;;;;;;;0.30;0.30;;;;;;;16.34;85.00;99241.81;4454928;32;34200;-78
2022/09/01 06:14:47;;;;;;;0.20;0.20;;;;;;;16.75;81.82;99242.03;4455892;32;34496;-78
2022/09/01 06:17:18;;;;;;;0.20;0.20;;;;;;;16.26;83.50;99257.81;4455411;32;33267;-78
2022/09/01 06:19:47;;;;;;;0.28;0.28;;;;;;;16.69;83.12;99258.03;4454791;32;35036;-78
2022/09/01 06:22:15;;;;;;;0.30;0.30;;;;;;;17.37;78.49;99260.75;4469708;32;34543;-78
2022/09/01 06:24:43;;;;;;;0.20;0.20;;;;;;;17.06;79.90;99251.41;4468557;32;34156;-78
2022/09/01 06:27:19;;;;;;;0.20;0.20;;;;;;;17.00;80.95;99260.41;4469622;32;33894;-78
2022/09/01 06:29:54;;;;;;;0.43;0.43;;;;;;;17.49;78.61;99255.00;4468620;32;35876;-78
2022/09/01 06:32:24;;;;;;;1.62;1.50;;;;;;;17.17;79.46;99265.03;4468420;32;34434;-78
2022/09/01 06:34:53;;;;;;;1.10;0.95;;;;;;;16.97;81.02;99263.13;4468671;32;34193;-78
2022/09/01 06:37:21;;;;;;;0.30;0.30;;;;;;;17.33;76.89;99269.66;4469422;32;34792;-78
2022/09/01 06:39:50;;;;;;;0.20;0.20;;;;;;;16.81;81.56;99275.13;4454324;32;34939;-78
2022/09/01 06:42:18;;;;;;;0.20;0.20;;;;;;;16.90;78.99;99271.34;4468631;32;34540;-78
2022/09/01 06:44:46;;;;;;;0.22;0.22;;;;;;;16.80;82.00;99269.03;4468330;32;34312;-78
2022/09/01 06:47:15;;;;;;;0.20;0.20;;;;;;;16.86;81.60;99271.44;4454460;32;33730;-78
2022/09/01 06:49:43;;;;;;;0.60;0.60;;;;;;;17.50;77.21;99267.22;4468387;32;34941;-78
2022/09/01 06:52:12;;;;;;;0.20;0.20;;;;;;;17.56;75.46;99269.63;4469160;32;34366;-78
2022/09/01 06:54:42;;;;;;;0.30;0.30;;;;;;;17.42;77.94;99280.69;4468302;32;33503;-78
2022/09/01 06:57:10;;;;;;;0.43;0.43;;;;;;;17.97;75.16;99277.59;4469184;32;33138;-78
2022/09/01 07:00:05;;;;;;;0.30;0.30;;;;;;;17.63;78.93;99281.59;4456969;32;35148;-78
2022/09/01 07:02:34;;;;;;;0.50;0.50;;;;;;;17.24;81.12;99282.28;4468232;32;34534;-78
2022/09/01 07:05:06;;;;;;;0.35;0.35;;;;;;;17.57;79.21;99294.16;4467520;32;33788;-78
2022/09/01 07:07:36;;;;;;;0.20;0.20;;;;;;;17.50;80.08;99296.16;4468995;32;33895;-78
2022/09/01 07:10:31;;;;;;;0.20;0.20;;;;;;;17.53;76.90;99296.06;4468044;32;36016;-78
2022/09/01 07:13:00;;;;;;;0.25;0.25;;;;;;;17.33;79.95;99301.25;4455457;32;35163;-78
2022/09/01 07:15:40;;;;;;;0.32;0.32;;;;;;;17.84;76.87;99297.44;4470228;32;33439;-77
2022/09/01 07:18:30;;;;;;;0.30;0.30;;;;;;;17.60;77.24;99304.56;4470325;32;33914;-78
2022/09/01 07:20:59;;;;;;;0.20;0.20;;;;;;;17.91;77.16;99296.31;4470118;32;36017;-78
2022/09/01 07:23:48;;;;;;;0.77;0.77;;;;;;;18.06;76.04;99305.34;4459522;32;34480;-78
2022/09/01 07:26:38;;;;;;;1.42;1.33;;;;;;;17.86;77.16;99298.28;4459811;32;33528;-78
2022/09/01 07:29:14;;;;;;;0.20;0.20;;;;;;;18.33;74.43;99295.38;4457158;32;34795;-78
2022/09/01 07:31:43;;;;;;;0.10;0.10;;;;;;;18.22;75.64;99297.66;4456972;32;35918;-78
2022/09/01 07:34:31;;;;;;;0.30;0.30;;;;;;;17.74;77.97;99304.88;4470097;32;34478;-77
2022/09/01 07:37:08;;;;;;;0.30;0.30;;;;;;;18.10;75.69;99303.44;4471154;32;34369;-78
2022/09/01 07:39:57;;;;;;;0.20;0.20;;;;;;;17.84;76.25;99307.97;4469949;32;34100;-78
2022/09/01 07:42:53;;;;;;;0.30;0.30;;;;;;;17.69;79.69;99303.34;4459601;32;35088;-78
2022/09/01 07:45:36;;;;;;;0.10;0.10;;;;;;;18.14;73.49;99297.97;4458137;32;34321;-77
2022/09/01 07:48:21;;;;;;;0.30;0.30;;;;;;;17.92;75.82;99297.16;4457775;32;33464;-78
2022/09/01 07:51:12;;;;;;;0.30;0.30;;;;;;;18.24;73.17;99285.25;4458935;32;33917;-78
2022/09/01 07:54:01;;;;;;;0.55;0.55;;;;;;;17.93;75.66;99294.47;4470298;32;35921;-77
2022/09/01 07:56:29;;;;;;;0.20;0.20;;;;;;;18.35;71.63;99288.31;4455731;32;35071;-78
2022/09/01 07:58:57;;;;;;;0.20;0.20;;;;;;;18.44;71.50;99291.44;4444254;32;34380;-79
2022/09/01 08:01:26;;;;;;;0.20;0.20;;;;;;;18.12;74.19;99296.31;4482229;32;34858;-79
2022/09/01 08:03:57;;;;;;;0.10;0.10;;;;;;;18.50;71.95;99291.19;4470983;32;35564;-79
2022/09/01 08:06:27;;;;;;;0.32;0.32;;;;;;;18.21;73.70;99295.91;4455793;32;33544;-79
2022/09/01 08:08:59;;;;;;;0.40;0.40;;;;;;;18.89;71.85;99304.38;4470749;32;34107;-79
2022/09/01 08:11:30;;;;;;;0.30;0.30;;;;;;;18.41;72.91;99302.13;4457249;32;33955;-79
2022/09/01 08:14:18;;;;;;;0.30;0.30;;;;;;;18.35;74.25;99297.97;4469952;32;35807;-78
2022/09/01 08:16:47;;;;;;;0.35;0.35;;;;;;;18.79;72.39;99310.13;4455489;32;32877;-78
2022/09/01 08:19:20;;;;;;;0.30;0.30;;;;;;;18.14;75.40;99307.66;4456599;32;33583;-78
2022/09/01 08:21:51;;;;;;;1.23;0.98;;;;;;;18.76;71.04;99311.12;4469037;32;34164;-77
2022/09/01 08:24:19;;;;;;;0.20;0.20;;;;;;;18.84;68.18;99306.38;4469472;32;35144;-77
2022/09/01 08:26:47;;;;;;;0.10;0.10;;;;;;;18.57;69.44;99309.28;4443898;32;33625;-78
2022/09/01 08:29:15;;;;;;;11.88;0.90;;;;;;;18.74;68.12;99308.56;4456030;32;33403;-78
2022/09/01 08:31:45;;;;;;;0.22;0.22;;;;;;;18.45;70.14;99304.56;4470766;32;33915;-78
2022/09/01 08:34:15;;;;;;;0.30;0.30;;;;;;;18.62;68.52;99308.22;4456096;32;35907;-79
2022/09/01 08:36:43;;;;;;;0.32;0.32;;;;;;;18.83;69.87;99312.59;4469555;32;35121;-79
2022/09/01 08:39:11;;;;;;;0.50;0.50;;;;;;;18.43;72.29;99313.47;4468955;32;33442;-79
2022/09/01 08:41:56;;;;;;;0.20;0.20;;;;;;;17.94;80.22;99319.88;4470090;32;34610;-79
2022/09/01 08:44:41;;;;;;;0.15;0.15;;;;;;;18.18;77.55;99317.16;4455954;32;35139;-79
2022/09/01 08:47:12;;;;;;;0.30;0.30;;;;;;;18.08;78.01;99323.72;4470681;32;35281;-79
2022/09/01 08:49:45;;;;;;;0.28;0.28;;;;;;;18.48;75.81;99324.69;4454969;32;33621;-78
2022/09/01 08:52:23;;;;;;;0.17;0.17;;;;;;;18.49;75.53;99326.38;4456706;32;34792;-79
2022/09/01 08:54:59;;;;;;;0.30;0.30;;;;;;;19.02;69.96;99324.94;4455935;32;35131;-79
2022/09/01 08:57:33;;;;;;;0.25;0.25;;;;;;;19.03;69.50;99324.88;4469782;32;34590;-79
2022/09/01 09:00:11;;;;;;;3.30;0.75;;;;;;;18.99;71.44;99327.69;4447107;32;31606;-78
2022/09/01 09:02:56;;;;;;;0.20;0.20;;;;;;;19.49;68.26;99328.00;4462026;32;33792;-79
2022/09/01 09:05:49;;;;;;;0.30;0.30;;;;;;;19.23;69.85;99317.81;4469108;32;35170;-78
2022/09/01 09:08:56;;;;;;;0.43;0.43;;;;;;;19.29;69.27;99328.09;4470166;32;34513;-78
2022/09/01 09:11:39;;;;;;;0.30;0.30;;;;;;;19.63;68.41;99318.56;4435391;32;33239;-80
2022/09/01 09:14:52;;;;;;;0.55;0.55;;;;;;;19.75;66.42;99319.75;4470369;32;34059;-80
2022/09/01 09:17:24;;;;;;;0.10;0.10;;;;;;;19.68;70.10;99324.50;4470148;32;35024;-79
2022/09/01 09:19:52;;;;;;;0.22;0.22;;;;;;;20.08;69.02;99317.25;4456414;32;34617;-79
2022/09/01 09:22:20;;;;;;;0.10;0.10;;;;;;;20.21;68.03;99314.84;4469239;32;33421;-79
2022/09/01 09:25:10;;;;;;;0.20;0.20;;;;;;;19.94;70.94;99314.44;4468667;32;34037;-79
2022/09/01 09:27:45;;;;;;;0.25;0.25;;;;;;;20.35;69.70;99312.34;4456185;32;35070;-78
2022/09/01 09:30:23;;;;;;;0.32;0.32;;;;;;;20.57;68.32;99301.50;4455599;32;34540;-79
2022/09/01 09:32:59;;;;;;;1.05;0.60;;;;;;;20.12;70.93;99302.97;4456464;32;33413;-79
2022/09/01 09:35:47;;;;;;;0.68;0.68;;;;;;;20.26;68.21;99294.31;4468093;32;34191;-79
2022/09/01 09:38:31;;;;;;;0.20;0.20;;;;;;;20.49;71.42;99301.06;4469956;32;35061;-79
2022/09/01 09:41:13;;;;;;;0.98;0.68;;;;;;;20.48;71.86;99298.50;4468035;32;34417;-79
2022/09/01 09:43:57;;;;;;;;;;;;;;;20.91;66.96;99291.81;4469505;32;33681;-79
2022/09/01 09:46:36;;;;;;;0.37;0.37;;;;;;;21.26;63.84;99296.09;4469159;32;35014;-79
2022/09/01 09:49:25;;;;;;;0.10;0.10;;;;;;;21.02;61.45;99284.13;4456024;32;36000;-79
2022/09/01 09:52:03;;;;;;;0.25;0.25;;;;;;;20.37;62.94;99291.13;4469098;32;35295;-78
2022/09/01 09:54:33;;;;;;;0.10;0.10;;;;;;;20.39;66.79;99292.75;4469689;32;33568;-79
2022/09/01 09:57:12;;;;;;;0.10;0.10;;;;;;;20.50;65.06;99292.19;4468128;32;33447;-78
2022/09/01 09:59:43;;;;;;;0.20;0.20;;;;;;;20.95;62.22;99284.56;4455653;32;34003;-79
2022/09/01 10:02:39;;;;;;;0.80;0.65;;;;;;;21.10;61.23;99286.34;4469692;32;35433;-79
2022/09/01 10:05:50;;;;;;;0.20;0.20;;;;;;;20.51;64.29;99288.59;4468873;32;33434;-79
2022/09/01 10:08:33;;;;;;;0.37;0.37;;;;;;;21.04;66.55;99286.69;4469877;32;34822;-79
2022/09/01 10:11:03;;;;;;;0.30;0.30;;;;;;;21.83;62.90;99282.31;4468520;32;35129;-79
2022/09/01 10:13:34;;;;;;;0.77;0.73;;;;;;;21.54;63.00;99290.13;4468710;32;34342;-79
2022/09/01 10:16:18;;;;;;;0.25;0.25;;;;;;;22.23;59.03;99287.91;4455185;32;33328;-79
2022/09/01 10:18:50;;;;;;;0.30;0.30;;;;;;;22.49;61.48;99284.56;4443380;32;34605;-79
2022/09/01 10:21:36;;;;;;;0.20;0.20;;;;;;;22.72;54.29;99284.97;4468603;32;34237;-78
2022/09/01 10:24:18;;;;;;;0.32;0.32;;;;;;;21.84;54.45;99289.31;4469465;32;34393;-78
2022/09/01 10:26:56;;;;;;;0.10;0.10;;;;;;;22.95;54.64;99283.53;4468487;32;32454;-79
2022/09/01 10:29:31;;;;;;;0.28;0.28;;;;;;;23.36;56.74;99279.22;4468583;32;34798;-80
2022/09/01 10:32:07;;;;;;;0.10;0.10;;;;;;;23.66;49.71;99277.22;4454670;32;34959;-78
2022/09/01 10:34:56;;;;;;;0.30;0.30;;;;;;;23.28;49.46;99274.41;4454187;32;32524;-78
2022/09/01 10:37:27;;;;;;;0.32;0.32;;;;;;;23.64;50.02;99267.63;4454944;32;33082;-77
2022/09/01 10:40:33;;;;;;;0.13;0.13;;;;;;;24.11;50.99;99276.09;4454410;32;33660;-79
2022/09/01 10:43:24;;;;;;;0.47;0.30;;;;;;;23.24;47.89;99265.78;4468983;32;35773;-76
2022/09/01 10:45:52;;;;;;;0.20;0.20;;;;;;;24.24;47.11;99266.31;4467422;32;35223;-77
2022/09/01 10:48:35;;;;;;;0.10;0.10;;;;;;;23.33;48.41;99268.78;4471007;32;34231;-78
2022/09/01 10:51:18;;;;;;;0.55;0.55;;;;;;;23.90;49.64;99268.59;4470293;32;34788;-77
2022/09/01 10:53:50;;;;;;;0.17;0.17;;;;;;;23.54;45.42;99267.41;4470212;32;34262;-78
2022/09/01 10:56:24;;;;;;;3.40;0.93;;;;;;;24.24;45.77;99263.66;4458310;32;35071;-78
2022/09/01 10:59:21;;;;;;;0.25;0.25;;;;;;;24.68;45.75;99257.06;4470997;32;33456;-78
2022/09/01 11:02:14;;;;;;;0.10;0.10;;;;;;;24.57;44.35;99262.31;4470897;32;33947;-78
2022/09/01 11:04:54;;;;;;;0.20;0.20;;;;;;;24.70;43.53;99254.31;4458561;32;36011;-78
2022/09/01 11:07:24;;;;;;;0.50;0.43;;;;;;;24.89;44.54;99256.50;4457085;32;35256;-78
2022/09/01 11:10:19;;;;;;;0.20;0.20;;;;;;;25.17;41.72;99261.53;4470013;32;33245;-78
2022/09/01 11:13:18;;;;;;;0.10;0.10;;;;;;;24.42;42.15;99262.37;4471140;32;34940;-79
2022/09/01 11:15:47;;;;;;;0.10;0.10;;;;;;;25.17;42.70;99261.53;4455917;32;34401;-79
2022/09/01 11:18:28;;;;;;;0.20;0.20;;;;;;;24.62;44.44;99262.84;4456492;32;35139;-79
2022/09/01 11:21:14;;;;;;;0.10;0.10;;;;;;;25.67;43.14;99258.81;4461530;32;34236;-79
2022/09/01 11:23:42;;;;;;;0.00;0.00;;;;;;;24.93;41.04;99256.16;4472733;32;34816;-78
2022/09/01 11:26:44;;;;;;;0.10;0.10;;;;;;;25.21;42.95;99254.19;4476287;32;35059;-78
2022/09/01 11:29:50;;;;;;;0.10;0.10;;;;;;;26.22;40.29;99248.44;4470773;32;35037;-77
2022/09/01 11:32:23;;;;;;;0.43;0.43;;;;;;;26.44;40.04;99252.16;4447882;32;33586;-77
2022/09/01 11:34:51;;;;;;;0.10;0.10;;;;;;;26.15;36.88;99257.91;4457046;32;33815;-79
2022/09/01 11:37:22;;;;;;;0.20;0.20;;;;;;;25.48;39.66;99248.69;4456224;32;35032;-78
2022/09/01 11:39:58;;;;;;;0.10;0.10;;;;;;;25.08;38.35;99251.56;4455011;32;34447;-77
2022/09/01 11:42:42;;;;;;;0.17;0.17;;;;;;;25.12;38.26;99250.38;4468005;32;33208;-78
2022/09/01 11:45:17;;;;;;;0.10;0.10;;;;;;;25.34;37.84;99246.16;4470103;32;33899;-78
2022/09/01 11:47:53;;;;;;;0.57;0.47;;;;;;;25.71;38.64;99246.97;4470736;32;36185;-78
2022/09/01 11:50:32;;;;;;;4.72;1.17;;;;;;;26.45;36.54;99241.34;4458756;32;34562;-79
2022/09/01 11:53:06;;;;;;;0.30;0.30;;;;;;;25.89;36.77;99236.72;4456805;32;33527;-79
2022/09/01 11:55:47;;;;;;;0.20;0.20;;;;;;;25.62;36.69;99244.97;4470324;32;33977;-76
2022/09/01 11:58:26;;;;;;;0.20;0.20;;;;;;;25.09;36.31;99242.59;4455763;32;35282;-79
2022/09/01 12:00:55;;;;;;;0.10;0.10;;;;;;;24.68;41.53;99232.25;4468443;32;35327;-79
2022/09/01 12:03:28;;;;;;;0.30;0.30;;;;;;;25.76;38.31;99240.44;4469773;32;34245;-79
2022/09/01 12:06:02;;;;;;;0.15;0.15;;;;;;;25.69;37.93;99229.38;4456978;32;33963;-78
2022/09/01 12:08:34;;;;;;;0.10;0.10;;;;;;;25.74;38.21;99222.72;4456189;32;35150;-77
2022/09/01 12:11:04;;;;;;;1.17;0.90;;;;;;;26.09;37.76;99229.03;4454898;32;35257;-77
2022/09/01 12:13:32;;;;;;;0.30;0.30;;;;;;;26.46;37.88;99221.66;4465970;32;33435;-77